This is the latest recevied weather packets stored in our database for station/object AG1T-20. If no packets are shown the sender has not sent any weather packets the latest 10 day(s).
| Time | Temp. | Humidity | Pressure | Rain* | Wind** | Luminosity | Snow |
|---|---|---|---|---|---|---|---|
| 1777626005 | 5.56° C | 62% | 1022.2 hPa | 0 mm | - | 0 W/m² | - |
| 1777625405 | 6.67° C | 57% | 1022.1 hPa | 0 mm | - | 0 W/m² | - |
| 1777624805 | 6.67° C | 57% | 1022.1 hPa | 0 mm | - | 0 W/m² | - |
| 1777624205 | 5.56° C | 61% | 1022.1 hPa | 0 mm | - | 0 W/m² | - |
| 1777623605 | 6.11° C | 58% | 1022.1 hPa | 0 mm | - | 0 W/m² | - |
| 1777623005 | 6.67° C | 59% | 1022.1 hPa | 0 mm | - | 0 W/m² | - |
| 1777622405 | 6.67° C | 57% | 1022.1 hPa | 0 mm | - | 0 W/m² | - |
| 1777621805 | 7.22° C | 56% | 1021.7 hPa | 0 mm | - | 0 W/m² | - |
| 1777621205 | 6.67° C | 58% | 1021.7 hPa | 0 mm | - | 0 W/m² | - |
| 1777620605 | 5.56° C | 62% | 1021.7 hPa | 0 mm | - | 0 W/m² | - |
| 1777620005 | 7.22° C | 56% | 1021.7 hPa | 0 mm | - | 0 W/m² | - |
| 1777619405 | 6.11° C | 63% | 1021.7 hPa | 0 mm | - | 0 W/m² | - |
| 1777618804 | 6.11° C | 62% | 1021.7 hPa | 0 mm | - | 0 W/m² | - |
| 1777618205 | 6.67° C | 58% | 1021.4 hPa | 0 mm | - | 0 W/m² | - |
| 1777617605 | 7.22° C | 56% | 1021.4 hPa | 0 mm | - | 0 W/m² | - |
| 1777617004 | 7.78° C | 54% | 1021.4 hPa | 0 mm | - | 0 W/m² | - |
| 1777616405 | 8.89° C | 48% | 1021.4 hPa | 0 mm | - | 0 W/m² | - |
| 1777615805 | 8.89° C | 47% | 1021.4 hPa | 0 mm | - | 0 W/m² | - |
| 1777615204 | 9.44° C | 46% | 1021.4 hPa | 0 mm | - | 0 W/m² | - |
| 1777614605 | 8.33° C | 49% | 1020.9 hPa | 0 mm | - | 0 W/m² | - |
| 1777614005 | 9.44° C | 46% | 1020.9 hPa | 0 mm | - | 0 W/m² | - |
| 1777613404 | 9.44° C | 45% | 1020.9 hPa | 0 mm | - | 0 W/m² | - |
| 1777612804 | 8.89° C | 47% | 1020.9 hPa | 0 mm | - | 0 W/m² | - |
| 1777612204 | 8.89° C | 47% | 1020.9 hPa | 0 mm | - | 0 W/m² | - |
| 1777611605 | 10° C | 44% | 1020.9 hPa | 0 mm | - | 0 W/m² | - |
* Rain latest hour (hover to see other rain measurements)
** Current wind speed in m/s (hover to see current wind gust speed)